Time;durP1;ratioP1;P1;durP2;ratioP2;P2;SDS_P1;SDS_P2;PMS_P1;PMS_P2;Temp;Humidity;BMP_temperature;BMP_pressure;BME280_temperature;BME280_humidity;BME280_pressure;Samples;Min_cycle;Max_cycle;Signal;HPM_P1;HPM_P2
2023/03/19 00:01:50;;;;;;;5.95;4.22;;;8.80;63.70;;;;;;5095318;28;20031;-83
2023/03/19 00:04:16;;;;;;;4.15;3.40;;;8.80;63.60;;;;;;5095835;28;20044;-84
2023/03/19 00:06:42;;;;;;;3.85;3.45;;;8.70;63.60;;;;;;5095812;28;20032;-84
2023/03/19 00:09:08;;;;;;;4.50;3.65;;;8.70;63.50;;;;;;5077168;28;20161;-86
2023/03/19 00:11:34;;;;;;;4.93;3.70;;;8.80;63.60;;;;;;5094913;28;20480;-85
2023/03/19 00:14:00;;;;;;;4.20;3.80;;;8.70;63.60;;;;;;5095128;28;20035;-86
2023/03/19 00:16:26;;;;;;;4.50;3.58;;;8.70;63.70;;;;;;5095073;28;20486;-84
2023/03/19 00:18:51;;;;;;;4.45;3.50;;;8.70;63.60;;;;;;5094684;28;20035;-86
2023/03/19 00:21:17;;;;;;;3.33;3.00;;;8.80;63.70;;;;;;5094775;28;20028;-85
2023/03/19 00:23:42;;;;;;;4.38;3.67;;;8.70;63.60;;;;;;5094647;28;20068;-88
2023/03/19 00:26:08;;;;;;;3.97;3.42;;;8.70;63.60;;;;;;5094887;28;20103;-83
2023/03/19 00:28:36;;;;;;;4.25;3.53;;;8.70;63.60;;;;;;5076749;28;20030;-83
2023/03/19 00:31:10;;;;;;;4.07;3.60;;;8.70;63.60;;;;;;5076419;28;20066;-83
2023/03/19 00:33:36;;;;;;;4.68;3.72;;;8.70;63.60;;;;;;5094549;28;20072;-84
2023/03/19 00:36:03;;;;;;;4.38;3.30;;;8.70;63.60;;;;;;5094792;28;20115;-83
2023/03/19 00:38:28;;;;;;;4.45;3.45;;;8.70;63.60;;;;;;5094858;28;20070;-83
2023/03/19 00:40:54;;;;;;;4.88;3.80;;;8.70;63.60;;;;;;5094294;28;20059;-83
2023/03/19 00:43:20;;;;;;;5.13;3.75;;;8.70;63.50;;;;;;5094441;28;20122;-84
2023/03/19 00:45:45;;;;;;;4.13;3.67;;;8.70;63.50;;;;;;5094128;28;20035;-83
2023/03/19 00:48:11;;;;;;;4.82;3.80;;;8.70;63.50;;;;;;5094902;28;20482;-84
2023/03/19 00:50:37;;;;;;;4.68;3.67;;;8.70;63.50;;;;;;5094447;28;20077;-84
2023/03/19 00:53:02;;;;;;;4.65;3.75;;;8.70;63.50;;;;;;5094085;28;20039;-85
2023/03/19 00:55:28;;;;;;;4.30;3.60;;;8.80;63.50;;;;;;5076073;28;20024;-85
2023/03/19 00:57:54;;;;;;;4.95;3.92;;;8.70;63.50;;;;;;5094609;28;20028;-83
2023/03/19 01:00:20;;;;;;;6.50;4.00;;;8.70;63.50;;;;;;5094046;28;20036;-82
2023/03/19 01:02:46;;;;;;;4.80;3.53;;;8.70;63.50;;;;;;5094158;28;20093;-84
2023/03/19 01:05:12;;;;;;;5.18;3.92;;;8.70;63.60;;;;;;5094100;28;20048;-81
2023/03/19 01:07:37;;;;;;;4.38;3.92;;;8.70;63.50;;;;;;5094058;28;20508;-86
2023/03/19 01:10:03;;;;;;;5.07;4.25;;;8.70;63.50;;;;;;5094345;28;20056;-82
2023/03/19 01:12:29;;;;;;;5.63;4.00;;;8.70;63.50;;;;;;5096323;28;20036;-82
2023/03/19 01:14:55;;;;;;;5.32;4.13;;;8.70;63.60;;;;;;5096071;28;20111;-81
2023/03/19 01:17:20;;;;;;;5.45;4.35;;;8.70;63.50;;;;;;5088376;28;20031;-82
2023/03/19 01:19:47;;;;;;;4.97;3.88;;;8.70;63.50;;;;;;5113252;28;20027;-81
2023/03/19 01:22:15;;;;;;;5.10;4.10;;;8.70;63.50;;;;;;5095001;28;20483;-81
2023/03/19 01:24:40;;;;;;;6.25;4.45;;;8.70;63.50;;;;;;5113362;28;20107;-81
2023/03/19 01:27:06;;;;;;;5.35;4.57;;;8.70;63.50;;;;;;5113861;28;20070;-81
2023/03/19 01:29:32;;;;;;;5.72;4.07;;;8.70;63.50;;;;;;5113951;28;20368;-81
2023/03/19 01:31:58;;;;;;;4.95;4.30;;;8.70;63.60;;;;;;5114083;28;20032;-82
2023/03/19 01:34:24;;;;;;;4.97;4.15;;;8.70;63.60;;;;;;5106492;28;20125;-82
2023/03/19 01:36:49;;;;;;;5.13;4.07;;;8.70;63.50;;;;;;5093396;28;20024;-82
2023/03/19 01:39:15;;;;;;;5.25;4.30;;;8.60;63.50;;;;;;5093343;28;20043;-83
2023/03/19 01:41:42;;;;;;;5.03;4.13;;;8.70;63.50;;;;;;5093616;28;20077;-81
2023/03/19 01:44:31;;;;;;;5.32;4.35;;;8.60;63.50;;;;;;5075064;28;20039;-81
2023/03/19 01:46:59;;;;;;;5.38;4.18;;;8.70;63.50;;;;;;5075836;28;20509;-82
2023/03/19 01:49:27;;;;;;;4.65;4.03;;;8.70;63.50;;;;;;5055147;28;20462;-81
2023/03/19 01:51:54;;;;;;;5.28;4.55;;;8.60;63.50;;;;;;5055531;28;20421;-81
2023/03/19 01:54:23;;;;;;;5.68;4.50;;;8.70;63.50;;;;;;5055031;28;20441;-82
2023/03/19 01:56:55;;;;;;;5.53;4.20;;;8.70;63.50;;;;;;5054833;28;20032;-81
2023/03/19 01:59:40;;;;;;;5.00;4.20;;;8.60;63.50;;;;;;5072838;28;20112;-82
2023/03/19 02:02:16;;;;;;;;;;;8.70;63.60;;;;;;5054908;28;20103;-82
2023/03/19 02:04:46;;;;;;;5.20;4.00;;;8.70;63.50;;;;;;5072948;28;19962;-81
2023/03/19 02:07:13;;;;;;;4.93;4.03;;;8.60;63.50;;;;;;5058496;28;20032;-82
2023/03/19 02:09:40;;;;;;;4.82;4.03;;;8.60;63.50;;;;;;5076858;28;20028;-82
2023/03/19 02:12:08;;;;;;;6.18;4.75;;;8.60;63.50;;;;;;5076681;28;20470;-81
2023/03/19 02:14:33;;;;;;;5.43;4.50;;;8.70;63.60;;;;;;5076711;28;20036;-81
2023/03/19 02:17:00;;;;;;;5.30;4.15;;;8.60;63.50;;;;;;5076631;28;20201;-82
2023/03/19 02:19:37;;;;;;;5.80;4.32;;;8.60;63.50;;;;;;5076509;28;20024;-81
2023/03/19 02:22:03;;;;;;;5.03;4.07;;;8.70;63.50;;;;;;5076762;28;20028;-82
2023/03/19 02:24:37;;;;;;;4.72;4.00;;;8.70;63.50;;;;;;5076435;28;20033;-81
2023/03/19 02:27:05;;;;;;;4.97;4.10;;;8.70;63.50;;;;;;5076663;28;20020;-81
2023/03/19 02:29:31;;;;;;;5.07;4.10;;;8.70;63.50;;;;;;5076870;28;20035;-81
2023/03/19 02:31:56;;;;;;;4.90;3.97;;;8.70;63.60;;;;;;5076472;28;20028;-81
2023/03/19 02:34:22;;;;;;;4.60;4.10;;;8.70;63.50;;;;;;5076518;28;20048;-80
2023/03/19 02:36:53;;;;;;;5.10;3.92;;;8.60;63.50;;;;;;5075507;28;20417;-82
2023/03/19 02:39:37;;;;;;;5.65;4.30;;;8.70;63.50;;;;;;5075936;28;20062;-81
2023/03/19 02:42:04;;;;;;;4.60;3.90;;;8.60;63.50;;;;;;5076285;28;20044;-81
2023/03/19 02:44:30;;;;;;;5.07;4.00;;;8.60;63.50;;;;;;5076039;28;20178;-81
2023/03/19 02:46:56;;;;;;;5.75;4.18;;;8.60;63.50;;;;;;5076215;28;20442;-82
2023/03/19 02:49:22;;;;;;;4.22;3.80;;;8.70;63.60;;;;;;5076163;28;20028;-81
2023/03/19 02:51:48;;;;;;;3.90;3.42;;;8.60;63.50;;;;;;5076210;28;20374;-81
2023/03/19 02:54:14;;;;;;;4.68;3.80;;;8.60;63.50;;;;;;5076057;28;20024;-81
2023/03/19 02:56:40;;;;;;;4.35;3.70;;;8.70;63.60;;;;;;5075777;28;20021;-80
2023/03/19 02:59:06;;;;;;;4.88;4.00;;;8.60;63.60;;;;;;5057955;28;20035;-81
2023/03/19 03:01:31;;;;;;;3.90;3.45;;;8.70;63.60;;;;;;5075968;28;20028;-81
2023/03/19 03:03:57;;;;;;;4.38;3.63;;;8.60;63.60;;;;;;5075726;28;20040;-82
2023/03/19 03:06:22;;;;;;;4.35;3.95;;;8.60;63.50;;;;;;5075822;28;20025;-82
2023/03/19 03:08:48;;;;;;;4.68;3.63;;;8.60;63.50;;;;;;5075786;28;20035;-81
2023/03/19 03:11:14;;;;;;;4.05;3.63;;;8.60;63.50;;;;;;5075306;28;20032;-81
2023/03/19 03:13:39;;;;;;;3.65;3.28;;;8.60;63.50;;;;;;5075219;28;20111;-81
2023/03/19 03:16:06;;;;;;;3.75;3.33;;;8.60;63.50;;;;;;5075535;28;20024;-81
2023/03/19 03:18:31;;;;;;;3.90;3.50;;;8.70;63.50;;;;;;5075480;28;20482;-82
2023/03/19 03:20:57;;;;;;;3.50;3.20;;;8.70;63.50;;;;;;5075352;28;20031;-82
2023/03/19 03:23:23;;;;;;;4.28;3.65;;;8.60;63.40;;;;;;5056493;28;20036;-82
2023/03/19 03:25:50;;;;;;;3.92;3.53;;;8.70;63.40;;;;;;5074871;28;20099;-81
2023/03/19 03:28:17;;;;;;;3.72;3.33;;;8.60;63.40;;;;;;5057264;28;20056;-82
2023/03/19 03:30:44;;;;;;;3.83;3.30;;;8.60;63.40;;;;;;5075464;28;20028;-81
2023/03/19 03:33:09;;;;;;;4.07;3.55;;;8.70;63.40;;;;;;5075072;28;20033;-81
2023/03/19 03:35:35;;;;;;;4.57;3.85;;;8.70;63.50;;;;;;5092579;28;20048;-82
2023/03/19 03:38:03;;;;;;;3.83;3.45;;;8.60;63.40;;;;;;5095335;28;20477;-81
2023/03/19 03:40:29;;;;;;;4.43;3.38;;;8.60;63.40;;;;;;5095486;28;20024;-81
2023/03/19 03:42:54;;;;;;;3.40;3.10;;;8.60;63.50;;;;;;5095050;28;20046;-80
2023/03/19 03:45:20;;;;;;;4.00;3.60;;;8.70;63.50;;;;;;5095390;28;20107;-80
2023/03/19 03:47:46;;;;;;;3.70;3.30;;;8.60;63.40;;;;;;5095177;28;20039;-81
2023/03/19 03:50:12;;;;;;;3.90;3.47;;;8.60;63.50;;;;;;5095337;28;20020;-81
2023/03/19 03:52:38;;;;;;;3.47;3.17;;;8.60;63.50;;;;;;5095259;28;20032;-82
2023/03/19 03:55:04;;;;;;;4.90;3.38;;;8.60;63.50;;;;;;5095089;28;20032;-82
2023/03/19 03:57:30;;;;;;;4.30;3.90;;;8.60;63.50;;;;;;5095013;28;20028;-81
2023/03/19 03:59:56;;;;;;;3.90;3.50;;;8.60;63.50;;;;;;5095225;28;20524;-83
2023/03/19 04:02:21;;;;;;;4.50;3.47;;;8.60;63.40;;;;;;5095039;28;20060;-82
2023/03/19 04:04:47;;;;;;;4.18;3.60;;;8.60;63.40;;;;;;5095078;28;20028;-83
2023/03/19 04:07:13;;;;;;;3.75;3.20;;;8.60;63.40;;;;;;5094802;28;20513;-82
2023/03/19 04:09:40;;;;;;;3.53;3.17;;;8.60;63.40;;;;;;5094785;28;20458;-82
2023/03/19 04:12:05;;;;;;;3.42;3.13;;;8.60;63.40;;;;;;5094757;28;20039;-81
2023/03/19 04:14:31;;;;;;;4.65;3.40;;;8.70;63.40;;;;;;5076557;28;20032;-81
2023/03/19 04:16:57;;;;;;;3.80;3.40;;;8.70;63.40;;;;;;5094763;28;20031;-82
2023/03/19 04:19:22;;;;;;;3.67;3.08;;;8.70;63.40;;;;;;5094724;28;20024;-83
2023/03/19 04:21:48;;;;;;;4.25;3.50;;;8.70;63.50;;;;;;5076456;28;20028;-83
2023/03/19 04:24:14;;;;;;;3.92;3.53;;;8.60;63.50;;;;;;5094364;28;20036;-82
2023/03/19 04:26:40;;;;;;;4.32;3.75;;;8.60;63.40;;;;;;5094362;28;20115;-82
2023/03/19 04:29:07;;;;;;;4.00;3.58;;;8.60;63.40;;;;;;5094087;28;20115;-82
2023/03/19 04:31:33;;;;;;;3.55;3.22;;;8.60;63.40;;;;;;5094251;28;20024;-82
2023/03/19 04:33:59;;;;;;;4.90;3.50;;;8.60;63.40;;;;;;5090139;28;20083;-82
2023/03/19 04:36:25;;;;;;;3.90;3.50;;;8.70;63.40;;;;;;5056638;28;20044;-83
2023/03/19 04:38:51;;;;;;;3.60;3.30;;;8.70;63.40;;;;;;5074253;28;20489;-82
2023/03/19 04:41:17;;;;;;;4.13;3.72;;;8.70;63.40;;;;;;5073913;28;20020;-83
2023/03/19 04:43:42;;;;;;;3.47;3.17;;;8.70;63.40;;;;;;5073939;28;20060;-82
2023/03/19 04:46:08;;;;;;;3.85;3.35;;;8.70;63.30;;;;;;5056028;28;20390;-81
2023/03/19 04:48:34;;;;;;;3.83;3.30;;;8.70;63.30;;;;;;5073815;28;20028;-82
2023/03/19 04:51:01;;;;;;;3.47;3.08;;;8.70;63.40;;;;;;5073682;28;20031;-82
2023/03/19 04:53:28;;;;;;;3.50;3.10;;;8.70;63.30;;;;;;5073669;28;20024;-82
2023/03/19 04:55:54;;;;;;;3.90;3.50;;;8.80;63.30;;;;;;5055594;28;20098;-82
2023/03/19 04:58:21;;;;;;;3.40;3.10;;;8.80;63.30;;;;;;5055787;28;20032;-82
2023/03/19 05:00:47;;;;;;;4.25;3.60;;;8.80;63.30;;;;;;5061321;28;20031;-82
2023/03/19 05:03:16;;;;;;;3.80;3.20;;;8.80;63.30;;;;;;5093738;28;20119;-82
2023/03/19 05:05:42;;;;;;;4.18;3.65;;;8.80;63.20;;;;;;5093767;28;20028;-82
2023/03/19 05:08:08;;;;;;;4.68;3.55;;;8.90;63.30;;;;;;5093650;28;20422;-82
2023/03/19 05:10:35;;;;;;;4.30;3.38;;;8.90;63.20;;;;;;5075767;28;20024;-82
2023/03/19 05:13:01;;;;;;;4.10;3.38;;;8.90;63.20;;;;;;5093882;28;20032;-83
2023/03/19 05:15:27;;;;;;;4.57;3.60;;;8.90;63.20;;;;;;5093545;28;20028;-81
2023/03/19 05:17:53;;;;;;;4.68;3.58;;;8.90;63.10;;;;;;5075674;28;20385;-82
2023/03/19 05:20:18;;;;;;;3.92;3.40;;;9.00;63.10;;;;;;5093761;28;20437;-83
2023/03/19 05:22:45;;;;;;;4.15;3.35;;;9.00;63.00;;;;;;5093336;28;20115;-82
2023/03/19 05:25:11;;;;;;;3.83;3.42;;;9.00;62.90;;;;;;5093461;28;20027;-82
2023/03/19 05:27:36;;;;;;;4.05;3.47;;;9.10;63.00;;;;;;5075497;28;20492;-83
2023/03/19 05:30:03;;;;;;;4.72;3.88;;;9.10;62.90;;;;;;5093677;28;20028;-83
2023/03/19 05:32:29;;;;;;;4.38;3.72;;;9.10;62.90;;;;;;5075388;28;20032;-83
2023/03/19 05:34:54;;;;;;;3.97;3.30;;;9.10;62.80;;;;;;5093021;28;20059;-83
2023/03/19 05:37:20;;;;;;;4.45;3.65;;;9.20;62.80;;;;;;5075295;28;20024;-83
2023/03/19 05:39:46;;;;;;;5.20;3.58;;;9.20;62.80;;;;;;5093698;28;20024;-82
2023/03/19 05:42:13;;;;;;;4.13;3.53;;;9.20;62.80;;;;;;5097477;28;20024;-83
2023/03/19 05:44:39;;;;;;;4.40;3.80;;;9.30;62.70;;;;;;5098074;28;20119;-82
2023/03/19 05:47:05;;;;;;;4.35;3.67;;;9.30;62.70;;;;;;5097881;28;20421;-82
2023/03/19 05:49:30;;;;;;;3.85;3.33;;;9.30;62.60;;;;;;5097508;28;20024;-81
2023/03/19 05:51:57;;;;;;;4.03;3.58;;;9.40;62.60;;;;;;5079493;28;20093;-81
2023/03/19 05:54:22;;;;;;;4.38;3.47;;;9.40;62.50;;;;;;5079214;28;20462;-81
2023/03/19 05:56:48;;;;;;;4.68;3.60;;;9.40;62.40;;;;;;5097747;28;20077;-83
2023/03/19 05:59:14;;;;;;;4.07;3.20;;;9.40;62.40;;;;;;5079310;28;20024;-82
2023/03/19 06:01:39;;;;;;;4.05;3.33;;;9.50;62.30;;;;;;5097924;28;20032;-82
2023/03/19 06:04:06;;;;;;;3.70;3.22;;;9.50;62.20;;;;;;5097178;28;20035;-82
2023/03/19 06:06:31;;;;;;;3.63;3.00;;;9.50;62.20;;;;;;5097365;28;20036;-82
2023/03/19 06:08:57;;;;;;;3.55;3.15;;;9.60;62.10;;;;;;5097138;28;20040;-83
2023/03/19 06:11:23;;;;;;;3.35;3.05;;;9.60;62.00;;;;;;5097290;28;20024;-82
2023/03/19 06:13:48;;;;;;;3.25;2.95;;;9.60;62.00;;;;;;5078983;28;20081;-81
2023/03/19 06:16:14;;;;;;;3.65;3.25;;;9.70;61.90;;;;;;5097609;28;20370;-81
2023/03/19 06:18:39;;;;;;;3.65;3.28;;;9.70;61.80;;;;;;5097288;28;20043;-82
2023/03/19 06:21:05;;;;;;;3.22;2.92;;;9.70;61.70;;;;;;5096852;28;20527;-82
2023/03/19 06:23:31;;;;;;;3.40;2.83;;;9.80;61.60;;;;;;5096576;28;20079;-82
2023/03/19 06:25:57;;;;;;;3.78;3.35;;;9.80;61.60;;;;;;5096882;28;20496;-82
2023/03/19 06:28:22;;;;;;;3.20;2.90;;;9.80;61.50;;;;;;5096911;28;20496;-82
2023/03/19 06:30:48;;;;;;;3.75;3.03;;;9.90;61.40;;;;;;5090762;28;20020;-81
2023/03/19 06:33:14;;;;;;;3.60;3.00;;;9.90;61.30;;;;;;5076710;28;20170;-82
2023/03/19 06:35:40;;;;;;;3.42;3.10;;;9.90;61.20;;;;;;5072928;28;20052;-82
2023/03/19 06:38:06;;;;;;;3.22;2.92;;;9.90;61.20;;;;;;5076361;28;20021;-82
2023/03/19 06:40:32;;;;;;;3.22;2.88;;;9.90;61.20;;;;;;5076941;28;20027;-83
2023/03/19 06:42:58;;;;;;;3.55;3.08;;;9.90;61.20;;;;;;5076944;28;20037;-82
2023/03/19 06:45:24;;;;;;;3.33;3.03;;;9.90;61.10;;;;;;5076400;28;20036;-82
2023/03/19 06:47:50;;;;;;;3.15;2.85;;;9.80;61.00;;;;;;5076239;28;20406;-82
2023/03/19 06:50:16;;;;;;;3.38;2.88;;;9.90;61.10;;;;;;5075055;28;20031;-83
2023/03/19 06:52:42;;;;;;;3.25;2.90;;;9.80;60.90;;;;;;5075797;28;20139;-82
2023/03/19 06:55:10;;;;;;;3.22;2.90;;;9.90;61.00;;;;;;5092025;28;20393;-83
2023/03/19 06:57:36;;;;;;;3.13;2.83;;;9.90;60.90;;;;;;5091979;28;20021;-84
2023/03/19 07:00:04;;;;;;;3.50;2.90;;;9.90;60.90;;;;;;5086012;28;20458;-82
2023/03/19 07:02:30;;;;;;;3.63;3.03;;;9.90;60.90;;;;;;5084971;28;20016;-83
2023/03/19 07:04:55;;;;;;;3.20;2.83;;;9.90;60.80;;;;;;5086123;28;20020;-83
2023/03/19 07:07:21;;;;;;;3.38;2.90;;;9.90;60.70;;;;;;5084899;28;20451;-82
2023/03/19 07:09:47;;;;;;;2.83;2.53;;;9.90;60.70;;;;;;5084355;28;20115;-82
2023/03/19 07:12:13;;;;;;;3.28;2.97;;;9.90;60.60;;;;;;5086502;28;20024;-82
2023/03/19 07:14:38;;;;;;;3.17;2.88;;;9.90;60.50;;;;;;5085201;28;20074;-82
2023/03/19 07:17:04;;;;;;;3.00;2.70;;;9.90;60.50;;;;;;5084710;28;20020;-83
2023/03/19 07:19:30;;;;;;;2.75;2.55;;;10.00;60.50;;;;;;5086157;28;20020;-82
2023/03/19 07:21:55;;;;;;;3.20;2.90;;;10.00;60.50;;;;;;5084427;28;20020;-84
2023/03/19 07:24:21;;;;;;;3.50;2.97;;;10.00;60.30;;;;;;5083641;28;20392;-83
2023/03/19 07:26:47;;;;;;;3.47;2.95;;;9.90;60.20;;;;;;5086273;28;20028;-83
2023/03/19 07:29:13;;;;;;;3.33;2.90;;;10.00;60.20;;;;;;5083082;28;20023;-83
2023/03/19 07:31:39;;;;;;;3.33;3.03;;;10.00;60.20;;;;;;5084025;28;20416;-83
2023/03/19 07:34:05;;;;;;;3.10;2.80;;;10.00;60.10;;;;;;5085808;28;20098;-83
2023/03/19 07:36:31;;;;;;;3.22;2.90;;;10.00;60.10;;;;;;5084165;28;20097;-83
2023/03/19 07:38:57;;;;;;;3.03;2.72;;;10.00;60.10;;;;;;5084137;28;20420;-83
2023/03/19 07:41:23;;;;;;;2.85;2.63;;;9.90;60.00;;;;;;5086088;28;20028;-83
2023/03/19 07:43:48;;;;;;;3.38;3.05;;;10.00;60.10;;;;;;5087255;28;20035;-82
2023/03/19 07:46:14;;;;;;;2.97;2.72;;;10.00;60.00;;;;;;5084426;28;20020;-82
2023/03/19 07:48:40;;;;;;;3.20;2.83;;;10.00;60.00;;;;;;5066952;28;20061;-84
2023/03/19 07:51:06;;;;;;;2.67;2.47;;;10.00;59.90;;;;;;5085714;28;20083;-83
2023/03/19 07:53:31;;;;;;;3.28;2.83;;;10.00;59.80;;;;;;5075541;28;20037;-83
2023/03/19 07:55:57;;;;;;;3.10;2.78;;;10.00;59.80;;;;;;5075798;28;20024;-82
2023/03/19 07:58:23;;;;;;;3.20;2.90;;;10.00;59.70;;;;;;5075164;28;20031;-82
2023/03/19 08:00:49;;;;;;;2.92;2.70;;;10.00;59.60;;;;;;5076551;28;20017;-82
2023/03/19 08:03:15;;;;;;;3.28;2.97;;;10.10;59.50;;;;;;5065663;28;20039;-86
2023/03/19 08:05:40;;;;;;;2.70;2.50;;;10.00;59.30;;;;;;5070756;28;20028;-79
2023/03/19 08:08:06;;;;;;;3.20;2.83;;;10.00;59.30;;;;;;5088294;28;20476;-81
2023/03/19 08:10:32;;;;;;;2.80;2.50;;;10.00;59.30;;;;;;5084307;28;20036;-81
2023/03/19 08:12:58;;;;;;;2.55;2.35;;;10.00;59.60;;;;;;5064466;28;20451;-81
2023/03/19 08:15:23;;;;;;;2.75;2.55;;;10.00;59.70;;;;;;5081332;28;20028;-80
2023/03/19 08:17:57;;;;;;;2.70;2.50;;;10.00;59.70;;;;;;5083390;28;20053;-80
2023/03/19 08:20:22;;;;;;;2.58;2.38;;;10.00;59.60;;;;;;5065198;28;20056;-82
2023/03/19 08:22:49;;;;;;;2.47;2.28;;;10.00;59.40;;;;;;5082827;28;20114;-81
2023/03/19 08:25:15;;;;;;;2.83;2.63;;;10.10;59.40;;;;;;5064594;28;20028;-81
2023/03/19 08:27:41;;;;;;;2.70;2.50;;;10.20;59.40;;;;;;5084404;28;20085;-78
2023/03/19 08:30:09;;;;;;;2.63;2.42;;;10.20;59.20;;;;;;5055865;28;20028;-80
2023/03/19 08:32:35;;;;;;;2.60;2.40;;;10.30;59.20;;;;;;5064707;28;20025;-79
2023/03/19 08:35:01;;;;;;;2.47;2.28;;;10.30;59.10;;;;;;5087716;28;20071;-80
2023/03/19 08:37:27;;;;;;;2.70;2.50;;;10.40;59.00;;;;;;5114279;28;20102;-78
2023/03/19 08:39:53;;;;;;;2.35;2.15;;;10.50;58.80;;;;;;5114356;28;20492;-76
2023/03/19 08:42:20;;;;;;;2.58;2.38;;;10.50;58.60;;;;;;5113796;28;20024;-74
2023/03/19 08:44:46;;;;;;;2.45;2.22;;;10.60;58.60;;;;;;5113764;28;20105;-81
2023/03/19 08:47:11;;;;;;;2.50;2.30;;;10.60;58.60;;;;;;5095477;28;20537;-80
2023/03/19 08:49:37;;;;;;;2.58;2.40;;;10.60;58.50;;;;;;5096329;28;20068;-81
2023/03/19 08:52:04;;;;;;;2.60;2.40;;;10.60;58.40;;;;;;5114275;28;20484;-82
2023/03/19 08:54:30;;;;;;;2.50;2.30;;;10.60;58.40;;;;;;5114915;28;20042;-85
2023/03/19 08:56:56;;;;;;;2.50;2.30;;;10.70;58.40;;;;;;5114209;28;20015;-74
2023/03/19 08:59:22;;;;;;;2.50;2.30;;;10.70;58.40;;;;;;5093101;28;20106;-76
2023/03/19 09:01:51;;;;;;;2.22;2.10;;;10.80;58.40;;;;;;5098717;28;20023;-74
2023/03/19 09:04:18;;;;;;;2.40;2.20;;;10.80;58.30;;;;;;5103916;28;20024;-76
2023/03/19 09:06:44;;;;;;;2.38;2.17;;;10.90;58.80;;;;;;5083803;28;20020;-76
2023/03/19 09:09:09;;;;;;;2.78;2.47;;;11.00;58.20;;;;;;5103102;28;20102;-76
2023/03/19 09:11:35;;;;;;;2.67;2.33;;;11.00;58.00;;;;;;5103308;28;20460;-75
2023/03/19 09:14:01;;;;;;;2.40;2.20;;;11.10;57.90;;;;;;5083309;28;20526;-77
2023/03/19 09:16:28;;;;;;;2.47;2.28;;;11.20;57.80;;;;;;5102706;28;20120;-75
2023/03/19 09:18:54;;;;;;;2.20;2.00;;;11.20;57.70;;;;;;5085160;28;20031;-75
2023/03/19 09:21:20;;;;;;;2.50;2.30;;;11.30;57.70;;;;;;5083910;28;20028;-76
2023/03/19 09:23:46;;;;;;;2.50;2.30;;;11.40;57.50;;;;;;5085280;28;20423;-74
2023/03/19 09:26:11;;;;;;;2.63;2.30;;;11.40;57.40;;;;;;5102556;28;20023;-78
2023/03/19 09:28:37;;;;;;;2.78;2.17;;;11.50;57.30;;;;;;5101618;28;20057;-77
2023/03/19 09:31:06;;;;;;;2.40;2.20;;;11.60;57.20;;;;;;5103490;28;20019;-80
2023/03/19 09:33:32;;;;;;;2.45;2.25;;;11.70;57.00;;;;;;5102160;28;20112;-78
2023/03/19 09:35:58;;;;;;;2.65;2.25;;;11.70;56.90;;;;;;5081142;28;20039;-77
2023/03/19 09:38:24;;;;;;;2.70;2.50;;;11.80;56.90;;;;;;5080826;28;20104;-79
2023/03/19 09:41:12;;;;;;;2.30;2.10;;;11.80;56.80;;;;;;5082414;28;20050;-78
2023/03/19 09:43:56;;;;;;;2.50;2.30;;;11.90;56.50;;;;;;5083324;28;20082;-79
2023/03/19 09:46:57;;;;;;;2.57;2.37;;;11.90;56.60;;;;;;5083380;28;20035;-80
2023/03/19 09:49:36;;;;;;;2.70;2.50;;;12.00;56.10;;;;;;5057625;28;20109;-80
2023/03/19 09:52:18;;;;;;;2.45;2.25;;;12.00;56.50;;;;;;5071814;28;20462;-79
2023/03/19 09:54:47;;;;;;;15.50;9.50;;;12.10;56.30;;;;;;5092901;28;20035;-82
2023/03/19 09:57:13;;;;;;;13.65;8.00;;;12.10;56.50;;;;;;5074153;28;20028;-84
2023/03/19 09:59:39;;;;;;;13.70;7.63;;;12.20;56.70;;;;;;5074042;28;20115;-80
2023/03/19 10:02:28;;;;;;;12.15;7.30;;;12.20;56.60;;;;;;5092595;28;20117;-82
2023/03/19 10:05:21;;;;;;;11.57;7.03;;;12.20;56.40;;;;;;5074659;28;20032;-82
2023/03/19 10:07:59;;;;;;;10.07;6.07;;;12.10;56.30;;;;;;5092744;28;20089;-78
2023/03/19 10:10:36;;;;;;;9.35;5.45;;;12.10;56.30;;;;;;5092551;28;20020;-81
2023/03/19 10:13:17;;;;;;;7.18;4.93;;;12.10;56.40;;;;;;5074122;28;20028;-78
2023/03/19 10:15:43;;;;;;;6.45;4.25;;;12.00;56.20;;;;;;5093252;28;20359;-85
2023/03/19 10:18:16;;;;;;;6.35;4.13;;;12.00;56.40;;;;;;5075173;28;20074;-88
2023/03/19 10:20:52;;;;;;;5.60;3.88;;;12.00;56.40;;;;;;5091780;28;20024;-81
2023/03/19 10:23:51;;;;;;;4.55;3.20;;;12.00;56.30;;;;;;5074337;28;20542;-80
2023/03/19 10:26:20;;;;;;;4.07;2.97;;;12.00;56.10;;;;;;5074842;28;20123;-79
2023/03/19 10:29:15;;;;;;;3.47;3.00;;;12.00;56.30;;;;;;5096097;28;20103;-77
2023/03/19 10:31:59;;;;;;;3.88;2.92;;;11.90;56.10;;;;;;5078983;28;20035;-85
2023/03/19 10:34:34;;;;;;;3.17;2.67;;;11.90;56.20;;;;;;5105439;28;20389;-87
2023/03/19 10:37:21;;;;;;;2.90;2.45;;;11.80;56.10;;;;;;5091375;28;20474;-83
2023/03/19 10:39:54;;;;;;;3.95;2.60;;;11.80;56.00;;;;;;5077620;28;20032;-81
2023/03/19 10:43:00;;;;;;;2.85;2.65;;;11.80;56.10;;;;;;5077976;28;20366;-86
2023/03/19 10:45:31;;;;;;;2.55;2.30;;;11.80;55.80;;;;;;5096375;28;20036;-88
2023/03/19 10:47:59;;;;;;;2.63;2.42;;;11.80;56.10;;;;;;5078409;28;20028;-82
2023/03/19 10:50:30;;;;;;;2.53;2.25;;;11.80;56.10;;;;;;5095861;28;20024;-89
2023/03/19 10:53:14;;;;;;;2.75;2.55;;;11.70;56.00;;;;;;5097301;28;20107;-83
2023/03/19 10:55:54;;;;;;;2.20;2.07;;;11.70;55.90;;;;;;5096528;28;20470;-82
2023/03/19 10:58:24;;;;;;;2.88;2.45;;;11.70;56.10;;;;;;5095800;28;20058;-82
2023/03/19 11:00:56;;;;;;;2.95;2.65;;;11.60;56.10;;;;;;5093955;28;20063;-84
2023/03/19 11:03:34;;;;;;;2.72;2.53;;;11.60;56.00;;;;;;5115626;28;20035;-87
2023/03/19 11:06:16;;;;;;;2.72;2.45;;;11.60;56.00;;;;;;5097994;28;20020;-81
2023/03/19 11:08:46;;;;;;;2.60;2.40;;;11.60;56.00;;;;;;5115686;28;20024;-84
2023/03/19 11:11:31;;;;;;;2.60;2.40;;;11.60;56.00;;;;;;5115134;28;20029;-80
2023/03/19 11:13:57;;;;;;;2.85;2.65;;;11.60;55.80;;;;;;5115338;28;20096;-81
2023/03/19 11:16:23;;;;;;;2.75;2.55;;;11.60;55.90;;;;;;5115658;28;20028;-84
2023/03/19 11:18:49;;;;;;;2.85;2.60;;;11.60;55.90;;;;;;5097888;28;20092;-82
2023/03/19 11:21:29;;;;;;;2.40;2.20;;;11.60;55.90;;;;;;5115495;28;20047;-82
2023/03/19 11:24:03;;;;;;;2.63;2.42;;;11.60;55.80;;;;;;5116400;28;20032;-80
2023/03/19 11:26:29;;;;;;;2.70;2.50;;;11.60;55.90;;;;;;5115989;28;20027;-82
2023/03/19 11:29:04;;;;;;;2.45;2.25;;;11.60;55.80;;;;;;5097696;28;20278;-81
2023/03/19 11:31:40;;;;;;;2.60;2.40;;;11.60;55.80;;;;;;5096973;28;20050;-80
2023/03/19 11:34:12;;;;;;;2.70;2.50;;;11.60;55.80;;;;;;5097090;28;20051;-82
2023/03/19 11:37:28;;;;;;;2.50;2.30;;;11.60;55.80;;;;;;5097288;28;20050;-81
2023/03/19 11:39:57;;;;;;;2.67;2.47;;;11.60;55.50;;;;;;4999370;28;20029;-82
2023/03/19 11:42:33;;;;;;;2.50;2.30;;;11.60;55.70;;;;;;5091780;28;20048;-81
2023/03/19 11:45:25;;;;;;;2.70;2.40;;;11.60;55.70;;;;;;5119456;28;20497;-83
2023/03/19 11:48:03;;;;;;;2.65;2.45;;;11.70;55.50;;;;;;5117264;28;20099;-81
2023/03/19 11:50:56;;;;;;;2.70;2.50;;;11.70;55.70;;;;;;5097812;28;20424;-80
2023/03/19 11:53:40;;;;;;;3.33;2.70;;;11.70;55.50;;;;;;5096492;28;20023;-81
2023/03/19 11:56:21;;;;;;;2.72;2.50;;;11.70;55.50;;;;;;5114971;28;20024;-80
2023/03/19 11:59:05;;;;;;;3.58;2.70;;;11.70;55.50;;;;;;5114492;28;20058;-80
2023/03/19 12:01:52;;;;;;;3.13;2.72;;;11.70;55.60;;;;;;5096223;28;20020;-82
2023/03/19 12:04:48;;;;;;;2.65;2.45;;;11.70;55.60;;;;;;5114640;28;20020;-79
2023/03/19 12:07:41;;;;;;;2.65;2.45;;;11.70;55.50;;;;;;5113976;28;20031;-82
2023/03/19 12:10:43;;;;;;;2.63;2.42;;;11.70;55.50;;;;;;5115541;28;20027;-78
2023/03/19 12:13:32;;;;;;;2.60;2.40;;;11.80;55.50;;;;;;5114376;28;20028;-82
2023/03/19 12:16:26;;;;;;;2.63;2.42;;;11.80;55.50;;;;;;5096165;28;20103;-77
2023/03/19 12:19:16;;;;;;;2.50;2.30;;;11.80;55.50;;;;;;5114351;28;20027;-83
2023/03/19 12:22:12;;;;;;;2.55;2.35;;;11.80;55.50;;;;;;5114992;28;20030;-81
2023/03/19 12:25:04;;;;;;;2.95;2.60;;;11.80;55.50;;;;;;5114420;28;20031;-82
2023/03/19 12:27:43;;;;;;;3.15;2.50;;;11.90;55.20;;;;;;5057472;28;20660;-84
2023/03/19 12:30:12;;;;;;;2.92;2.40;;;11.90;55.40;;;;;;5096116;28;20036;-80
2023/03/19 12:33:06;;;;;;;2.30;2.10;;;11.90;55.40;;;;;;5113920;28;20024;-88
2023/03/19 12:35:39;;;;;;;2.53;2.33;;;11.90;55.20;;;;;;5097468;28;20517;-79
2023/03/19 12:38:12;;;;;;;2.95;2.40;;;11.90;55.40;;;;;;5075937;28;20479;-86
2023/03/19 12:40:44;;;;;;;3.00;2.33;;;11.90;55.30;;;;;;5075337;28;20046;-77
2023/03/19 12:43:52;;;;;;;2.35;2.22;;;12.00;55.40;;;;;;5075070;28;20111;-83
2023/03/19 12:46:58;;;;;;;2.70;2.50;;;12.00;55.10;;;;;;5093617;28;20028;-82
2023/03/19 12:49:35;;;;;;;2.55;2.35;;;12.00;55.30;;;;;;4974755;28;20535;-82
2023/03/19 12:52:27;;;;;;;2.90;2.47;;;12.10;55.30;;;;;;5079907;28;20180;-84
2023/03/19 12:55:12;;;;;;;2.80;2.60;;;12.10;55.10;;;;;;5089778;28;20021;-78
2023/03/19 12:57:44;;;;;;;;;;;12.20;55.20;;;;;;5076252;28;20469;-84
2023/03/19 13:00:34;;;;;;;2.83;2.63;;;12.20;54.70;;;;;;5093130;28;19903;-83
2023/03/19 13:03:17;;;;;;;2.60;2.40;;;12.30;55.10;;;;;;5058035;28;20079;-79
2023/03/19 13:06:07;;;;;;;2.40;2.20;;;12.30;55.00;;;;;;5094209;28;20088;-81
2023/03/19 13:08:39;;;;;;;2.45;2.25;;;12.40;55.00;;;;;;5093817;28;20020;-81